Acton, Montana
Current Conditions -  °F | °C
As of 2:59 AM on Wednesday 26 Nov 2014 (Local Time) from KBIL Reporting Station
Light Snow Light Snow  
Wind Chill: 21°   Ceiling: 500
Heat Index: 29°   Visibility: 1.5mi
Dew Point: 28°   Wind: 8mph
Humidity: 96%   Direction: 220°SW
Pressure: 30.17"   Gusts: NA
Location:  45.93°N, 108.69°W
Report Text: KBIL 260959Z 22007KT 1 1/2SM -SN BR SCT001 OVC005 M02/M02 A3017 RMK AO2 P0000 T10171022 $
Loading
Personal Weather Stations






























Interactive Weather Map New forecast layout! Learn more

10-Day Weather Forecast

Advertisements
Track Severe Weather on mobile